createdAt,value
2023-02-25T00:02:15.614Z,3.63
2023-02-25T00:04:43.115Z,3.37
2023-02-25T00:07:09.427Z,3.67
2023-02-25T00:09:35.730Z,3.70
2023-02-25T00:12:02.085Z,3.53
2023-02-25T00:14:28.457Z,3.90
2023-02-25T00:16:56.145Z,4.27
2023-02-25T00:19:25.808Z,3.87
2023-02-25T00:21:52.138Z,3.73
2023-02-25T00:24:18.680Z,3.43
2023-02-25T00:26:45.235Z,3.73
2023-02-25T00:29:11.557Z,3.80
2023-02-25T00:31:38.104Z,4.00
2023-02-25T00:34:04.562Z,3.83
2023-02-25T00:36:30.848Z,4.07
2023-02-25T00:38:57.629Z,4.03
2023-02-25T00:41:26.795Z,4.40
2023-02-25T00:43:56.114Z,4.10
2023-02-25T00:46:23.130Z,3.80
2023-02-25T00:48:50.036Z,4.20
2023-02-25T00:51:18.178Z,4.00
2023-02-25T00:53:44.677Z,4.10
2023-02-25T00:56:15.927Z,3.80
2023-02-25T00:58:43.180Z,4.03
2023-02-25T01:01:21.594Z,4.50
2023-02-25T01:03:48.598Z,4.37
2023-02-25T01:06:15.196Z,4.03
2023-02-25T01:08:42.252Z,4.23
2023-02-25T01:11:24.537Z,4.30
2023-02-25T01:13:50.969Z,4.00
2023-02-25T01:16:22.231Z,4.03
2023-02-25T01:18:51.644Z,3.77
2023-02-25T01:21:20.431Z,3.47
2023-02-25T01:23:47.749Z,4.10
2023-02-25T01:26:14.803Z,3.90
2023-02-25T01:28:41.424Z,3.23
2023-02-25T01:31:10.817Z,3.73
2023-02-25T01:33:40.147Z,3.87
2023-02-25T01:36:06.565Z,3.43
2023-02-25T01:38:33.514Z,3.20
2023-02-25T01:41:00.450Z,3.73
2023-02-25T01:43:28.410Z,3.83
2023-02-25T01:45:55.307Z,3.57
2023-02-25T01:48:27.246Z,3.47
2023-02-25T01:50:55.495Z,3.53
2023-02-25T01:53:24.822Z,3.40
2023-02-25T01:55:51.367Z,3.30
2023-02-25T01:58:17.914Z,3.70
2023-02-25T02:00:44.841Z,3.57
2023-02-25T02:03:16.099Z,3.63
2023-02-25T02:05:47.998Z,3.30
2023-02-25T02:08:14.356Z,3.50
2023-02-25T02:10:40.687Z,3.47
2023-02-25T02:13:06.991Z,3.40
2023-02-25T02:15:38.658Z,3.37
2023-02-25T02:18:05.661Z,3.03
2023-02-25T02:20:50.741Z,3.90
2023-02-25T02:23:29.919Z,4.07
2023-02-25T02:26:05.076Z,3.67
2023-02-25T02:28:49.805Z,3.30
2023-02-25T02:31:19.585Z,3.67
2023-02-25T02:33:52.106Z,3.63
2023-02-25T02:36:44.688Z,3.30
2023-02-25T02:39:18.004Z,3.83
2023-02-25T02:41:58.377Z,4.17
2023-02-25T02:44:27.134Z,4.00
2023-02-25T02:46:54.465Z,3.73
2023-02-25T02:49:26.269Z,4.20
2023-02-25T02:52:18.665Z,4.63
2023-02-25T02:54:49.691Z,3.80
2023-02-25T02:57:16.667Z,3.93
2023-02-25T03:00:13.660Z,4.13
2023-02-25T03:02:41.807Z,4.03
2023-02-25T03:05:11.866Z,4.40
2023-02-25T03:07:52.452Z,4.10
2023-02-25T03:10:21.216Z,4.27
2023-02-25T03:12:47.544Z,4.23
2023-02-25T03:15:14.695Z,4.57
2023-02-25T03:17:51.670Z,4.73
2023-02-25T03:20:18.388Z,4.73
2023-02-25T03:22:47.002Z,4.67
2023-02-25T03:25:17.762Z,4.70
2023-02-25T03:27:45.374Z,5.53
2023-02-25T03:30:32.775Z,4.50
2023-02-25T03:33:01.238Z,4.80
2023-02-25T03:35:28.587Z,4.90
2023-02-25T03:37:59.334Z,5.00
2023-02-25T03:40:26.102Z,4.80
2023-02-25T03:42:55.980Z,5.43
2023-02-25T03:45:23.549Z,5.70
2023-02-25T03:47:50.337Z,5.53
2023-02-25T03:50:26.035Z,5.13
2023-02-25T03:52:52.343Z,5.17
2023-02-25T03:55:18.704Z,5.07
2023-02-25T03:57:46.207Z,5.13
2023-02-25T04:00:19.072Z,4.90
2023-02-25T04:02:46.508Z,4.87
2023-02-25T04:05:14.646Z,4.50
2023-02-25T04:07:40.982Z,4.53
2023-02-25T04:10:08.544Z,4.57
2023-02-25T04:12:34.859Z,4.80
2023-02-25T04:15:01.236Z,4.40
2023-02-25T04:17:27.622Z,4.37
2023-02-25T04:19:53.931Z,5.00
2023-02-25T04:22:20.241Z,4.40
2023-02-25T04:24:46.537Z,4.43
2023-02-25T04:27:15.552Z,4.70
2023-02-25T04:29:42.530Z,4.83
2023-02-25T04:32:09.475Z,4.37
2023-02-25T04:34:35.904Z,4.83
2023-02-25T04:37:04.581Z,4.90
2023-02-25T04:39:34.016Z,5.03
2023-02-25T04:42:00.626Z,5.00
2023-02-25T04:44:27.008Z,4.93
2023-02-25T04:46:53.442Z,5.57
2023-02-25T04:49:20.903Z,5.43
2023-02-25T04:51:47.827Z,5.60
2023-02-25T04:54:14.144Z,5.70
2023-02-25T04:56:40.640Z,5.37
2023-02-25T04:59:07.647Z,5.33
2023-02-25T05:01:34.105Z,5.60
2023-02-25T05:04:00.743Z,5.37
2023-02-25T05:06:27.955Z,5.47
2023-02-25T05:08:55.131Z,5.87
2023-02-25T05:11:21.476Z,5.63
2023-02-25T05:13:47.781Z,5.83
2023-02-25T05:16:16.608Z,5.87
2023-02-25T05:18:43.766Z,5.43
2023-02-25T05:21:12.183Z,5.67
2023-02-25T05:23:39.225Z,6.10
2023-02-25T05:26:05.959Z,5.90
2023-02-25T05:28:32.422Z,5.90
2023-02-25T05:30:58.883Z,6.33
2023-02-25T05:33:26.796Z,5.60
2023-02-25T05:35:53.204Z,5.60
2023-02-25T05:38:19.539Z,5.90
2023-02-25T05:40:45.862Z,5.83
2023-02-25T05:43:12.151Z,5.53
2023-02-25T05:45:38.545Z,7.10
2023-02-25T05:48:04.923Z,5.80
2023-02-25T05:50:34.473Z,4.83
2023-02-25T05:53:00.843Z,4.53
2023-02-25T05:55:27.163Z,4.37
2023-02-25T05:57:53.467Z,4.50
2023-02-25T06:00:21.473Z,4.17
2023-02-25T06:02:47.849Z,3.90
2023-02-25T06:05:14.146Z,4.57
2023-02-25T06:07:40.447Z,3.63
2023-02-25T06:10:06.970Z,4.03
2023-02-25T06:12:34.190Z,3.87
2023-02-25T06:15:00.484Z,4.23
2023-02-25T06:17:26.893Z,4.30
2023-02-25T06:19:53.234Z,4.20
2023-02-25T06:22:19.713Z,4.33
2023-02-25T06:24:46.142Z,4.47
2023-02-25T06:27:13.690Z,4.53
2023-02-25T06:29:41.840Z,4.40
2023-02-25T06:32:09.148Z,4.70
2023-02-25T06:34:36.136Z,4.30
2023-02-25T06:37:02.532Z,4.67
2023-02-25T06:39:28.864Z,4.73
2023-02-25T06:41:55.172Z,4.47
2023-02-25T06:44:21.514Z,4.67
2023-02-25T06:46:50.689Z,5.37
2023-02-25T06:49:16.999Z,5.47
2023-02-25T06:51:43.411Z,5.40
2023-02-25T06:54:10.219Z,4.97
2023-02-25T06:56:36.605Z,4.77
2023-02-25T06:59:02.892Z,5.07
2023-02-25T07:01:29.381Z,4.70
2023-02-25T07:03:55.788Z,5.40
2023-02-25T07:06:22.363Z,5.00
2023-02-25T07:08:48.816Z,4.43
2023-02-25T07:11:27.101Z,4.70
2023-02-25T07:13:53.404Z,4.60
2023-02-25T07:16:21.521Z,5.40
2023-02-25T07:18:48.580Z,4.70
2023-02-25T07:21:15.947Z,6.50
2023-02-25T07:23:42.505Z,4.43
2023-02-25T07:26:11.621Z,5.33
2023-02-25T07:28:38.291Z,4.43
2023-02-25T07:31:09.229Z,4.63
2023-02-25T07:33:35.712Z,4.97
2023-02-25T07:36:02.120Z,4.90
2023-02-25T07:38:28.428Z,4.87
2023-02-25T07:40:54.939Z,5.50
2023-02-25T07:43:21.254Z,6.10
2023-02-25T07:45:49.936Z,6.17
2023-02-25T07:48:16.299Z,6.47
2023-02-25T07:50:44.657Z,7.47
2023-02-25T07:53:11.057Z,9.00
2023-02-25T07:55:37.472Z,9.50
2023-02-25T07:58:05.772Z,9.80
2023-02-25T08:00:33.363Z,8.13
2023-02-25T08:02:59.676Z,7.03
2023-02-25T08:05:25.994Z,7.10
2023-02-25T08:07:52.352Z,8.30
2023-02-25T08:10:18.798Z,8.07
2023-02-25T08:12:45.086Z,8.63
2023-02-25T08:15:11.590Z,9.00
2023-02-25T08:17:38.413Z,9.70
2023-02-25T08:20:05.858Z,8.20
2023-02-25T08:22:32.295Z,9.67
2023-02-25T08:24:58.672Z,7.20
2023-02-25T08:27:25.001Z,18.90
2023-02-25T08:29:51.318Z,8.30
2023-02-25T08:32:17.754Z,9.73
2023-02-25T08:34:46.683Z,10.93
2023-02-25T08:37:15.033Z,10.37
2023-02-25T08:39:41.344Z,13.63
2023-02-25T08:42:07.630Z,9.27
2023-02-25T08:44:33.915Z,9.17
2023-02-25T08:47:00.308Z,8.00
2023-02-25T08:49:26.644Z,6.60
2023-02-25T08:51:52.978Z,5.87
2023-02-25T08:54:19.418Z,6.43
2023-02-25T08:56:45.767Z,5.90
2023-02-25T08:59:14.038Z,5.90
2023-02-25T09:01:50.449Z,6.13
2023-02-25T09:04:18.756Z,5.40
2023-02-25T09:06:47.314Z,5.50
2023-02-25T09:09:17.357Z,5.53
2023-02-25T09:11:44.008Z,5.00
2023-02-25T09:14:10.868Z,4.93
2023-02-25T09:16:37.310Z,4.83
2023-02-25T09:19:03.951Z,5.47
2023-02-25T09:21:30.230Z,5.20
2023-02-25T09:23:56.553Z,5.43
2023-02-25T09:26:22.921Z,4.73
2023-02-25T09:28:49.676Z,4.63
2023-02-25T09:31:16.870Z,4.67
2023-02-25T09:33:43.787Z,4.50
2023-02-25T09:36:11.728Z,4.97
2023-02-25T09:38:38.815Z,4.40
2023-02-25T09:41:16.900Z,4.13
2023-02-25T09:43:43.224Z,4.30
2023-02-25T09:46:11.684Z,4.33
2023-02-25T09:48:40.654Z,4.37
2023-02-25T09:51:18.313Z,4.53
2023-02-25T09:54:13.889Z,4.50
2023-02-25T09:56:40.201Z,3.60
2023-02-25T09:59:10.780Z,3.90
2023-02-25T10:01:38.854Z,4.43
2023-02-25T10:04:25.520Z,4.47
2023-02-25T10:06:52.718Z,4.37
2023-02-25T10:09:19.019Z,3.83
2023-02-25T10:11:45.383Z,4.53
2023-02-25T10:14:25.295Z,3.93
2023-02-25T10:17:04.106Z,4.47
2023-02-25T10:19:49.368Z,3.83
2023-02-25T10:22:34.526Z,4.17
2023-02-25T10:25:00.967Z,4.20
2023-02-25T10:27:31.174Z,4.10
2023-02-25T10:30:06.789Z,4.03
2023-02-25T10:32:35.704Z,4.40
2023-02-25T10:35:12.111Z,4.17
2023-02-25T10:37:38.438Z,3.83
2023-02-25T10:40:10.178Z,4.30
2023-02-25T10:42:37.165Z,4.23
2023-02-25T10:45:08.356Z,3.70
2023-02-25T10:47:36.014Z,3.20
2023-02-25T10:50:14.582Z,3.37
2023-02-25T10:52:59.317Z,3.20
2023-02-25T10:55:30.633Z,3.27
2023-02-25T10:57:57.828Z,3.43
2023-02-25T11:00:24.107Z,3.00
2023-02-25T11:02:51.260Z,3.23
2023-02-25T11:05:33.179Z,3.13
2023-02-25T11:07:59.603Z,3.00
2023-02-25T11:10:26.949Z,4.03
2023-02-25T11:12:55.670Z,2.50
2023-02-25T11:15:45.262Z,2.90
2023-02-25T11:18:26.988Z,2.73
2023-02-25T11:20:55.181Z,3.10
2023-02-25T11:23:44.562Z,2.70
2023-02-25T11:26:16.110Z,2.70
2023-02-25T11:28:47.227Z,2.50
2023-02-25T11:31:35.518Z,2.50
2023-02-25T11:34:04.289Z,2.40
2023-02-25T11:36:32.786Z,2.20
2023-02-25T11:39:15.200Z,2.77
2023-02-25T11:41:43.683Z,2.67
2023-02-25T11:44:33.451Z,2.37
2023-02-25T11:47:01.770Z,2.50
2023-02-25T11:49:34.347Z,2.40
2023-02-25T11:52:08.347Z,2.50
2023-02-25T11:54:54.407Z,3.57
2023-02-25T11:57:35.500Z,3.07
2023-02-25T12:00:11.480Z,1.97
2023-02-25T12:02:43.662Z,2.50
2023-02-25T12:05:28.715Z,2.20
2023-02-25T12:08:13.778Z,2.40
2023-02-25T12:10:40.630Z,1.90
2023-02-25T12:13:07.024Z,2.33
2023-02-25T12:15:33.316Z,2.30
2023-02-25T12:18:18.185Z,1.83
2023-02-25T12:20:50.261Z,2.43
2023-02-25T12:23:19.380Z,2.00
2023-02-25T12:25:51.199Z,2.03
2023-02-25T12:28:20.503Z,2.50
2023-02-25T12:30:54.420Z,1.73
2023-02-25T12:33:27.577Z,2.37
2023-02-25T12:36:05.860Z,2.17
2023-02-25T12:38:33.960Z,2.07
2023-02-25T12:41:15.745Z,2.10
2023-02-25T12:43:44.945Z,2.13
2023-02-25T12:46:18.278Z,1.80
2023-02-25T12:48:57.042Z,1.97
2023-02-25T12:51:29.265Z,1.77
2023-02-25T12:54:16.547Z,1.93
2023-02-25T12:57:03.124Z,1.50
2023-02-25T12:59:36.824Z,1.63
2023-02-25T13:02:22.470Z,1.98
2023-02-25T13:05:04.131Z,1.87
2023-02-25T13:07:39.878Z,2.27
2023-02-25T13:10:12.111Z,2.07
2023-02-25T13:12:57.807Z,1.93
2023-02-25T13:15:39.855Z,1.70
2023-02-25T13:18:16.526Z,1.85
2023-02-25T13:21:03.240Z,1.53
2023-02-25T13:23:48.294Z,1.50
2023-02-25T13:26:23.077Z,1.67
2023-02-25T13:28:52.475Z,1.67
2023-02-25T13:31:24.445Z,1.30
2023-02-25T13:33:51.370Z,1.65
2023-02-25T13:36:17.655Z,1.70
2023-02-25T13:38:49.890Z,1.60
2023-02-25T13:41:54.583Z,1.80
2023-02-25T13:44:33.482Z,1.57
2023-02-25T13:47:22.911Z,1.87
2023-02-25T13:50:08.093Z,1.97
2023-02-25T13:52:36.473Z,2.03
2023-02-25T13:55:21.429Z,1.40
2023-02-25T13:57:53.663Z,1.30
2023-02-25T14:00:23.755Z,1.50
2023-02-25T14:03:03.454Z,1.30
2023-02-25T14:05:29.723Z,1.60
2023-02-25T14:08:15.022Z,1.63
2023-02-25T14:10:55.392Z,1.50
2023-02-25T14:13:40.335Z,1.50
2023-02-25T14:16:12.445Z,1.30
2023-02-25T14:18:44.626Z,1.40
2023-02-25T14:21:23.232Z,1.87
2023-02-25T14:23:59.387Z,1.60
2023-02-25T14:26:33.208Z,1.60
2023-02-25T14:29:12.920Z,1.30
2023-02-25T14:31:57.632Z,1.33
2023-02-25T14:34:42.372Z,1.60
2023-02-25T14:37:11.625Z,1.90
2023-02-25T14:39:50.030Z,1.70
2023-02-25T14:42:36.446Z,1.50
2023-02-25T14:45:08.736Z,1.83
2023-02-25T14:47:44.215Z,1.47
2023-02-25T14:50:13.731Z,1.67
2023-02-25T14:52:51.434Z,1.70
2023-02-25T14:55:26.186Z,1.40
2023-02-25T14:58:28.167Z,1.50
2023-02-25T15:00:57.326Z,1.20
2023-02-25T15:03:32.943Z,1.67
2023-02-25T15:06:19.456Z,1.17
2023-02-25T15:08:54.873Z,1.37
2023-02-25T15:11:21.240Z,1.43
2023-02-25T15:13:47.597Z,1.20
2023-02-25T15:16:29.286Z,0.90
2023-02-25T15:19:01.381Z,0.93
2023-02-25T15:21:39.634Z,1.10
2023-02-25T15:24:24.446Z,1.10
2023-02-25T15:26:51.699Z,1.30
2023-02-25T15:29:27.149Z,1.30
2023-02-25T15:32:15.705Z,1.20
2023-02-25T15:34:54.286Z,1.30
2023-02-25T15:37:28.284Z,1.30
2023-02-25T15:39:56.676Z,0.90
2023-02-25T15:42:58.848Z,1.37
2023-02-25T15:45:27.958Z,0.93
2023-02-25T15:48:06.655Z,1.10
2023-02-25T15:50:53.359Z,1.30
2023-02-25T15:53:23.479Z,1.07
2023-02-25T15:55:50.206Z,1.33
2023-02-25T15:58:25.522Z,1.20
2023-02-25T16:00:57.779Z,1.60
2023-02-25T16:03:36.495Z,1.17
2023-02-25T16:06:04.489Z,1.40
2023-02-25T16:08:35.693Z,1.50
2023-02-25T16:11:03.400Z,1.50
2023-02-25T16:13:31.362Z,1.03
2023-02-25T16:15:58.267Z,1.40
2023-02-25T16:18:24.850Z,1.50
2023-02-25T16:20:52.965Z,1.30
2023-02-25T16:23:19.429Z,1.70
2023-02-25T16:26:03.829Z,1.40
2023-02-25T16:28:33.243Z,1.10
2023-02-25T16:31:07.056Z,1.47
2023-02-25T16:33:39.810Z,1.20
2023-02-25T16:36:10.952Z,1.30
2023-02-25T16:38:38.294Z,1.77
2023-02-25T16:41:04.767Z,1.80
2023-02-25T16:43:34.069Z,1.73
2023-02-25T16:46:00.389Z,1.43
2023-02-25T16:48:59.249Z,1.70
2023-02-25T16:51:31.697Z,1.40
2023-02-25T16:54:03.851Z,1.80
2023-02-25T16:56:31.460Z,1.70
2023-02-25T16:59:03.774Z,1.70
2023-02-25T17:01:31.161Z,1.60
2023-02-25T17:04:12.614Z,1.60
2023-02-25T17:06:39.168Z,1.90
2023-02-25T17:09:05.479Z,1.83
2023-02-25T17:11:32.348Z,2.00
2023-02-25T17:14:02.052Z,1.70
2023-02-25T17:16:47.901Z,1.60
2023-02-25T17:19:15.610Z,1.63
2023-02-25T17:21:44.289Z,2.00
2023-02-25T17:24:14.847Z,1.73
2023-02-25T17:26:45.766Z,1.80
2023-02-25T17:29:13.184Z,1.90
2023-02-25T17:31:47.102Z,2.33
2023-02-25T17:34:15.200Z,1.87
2023-02-25T17:36:41.639Z,2.00
2023-02-25T17:39:11.875Z,1.90
2023-02-25T17:41:41.546Z,1.77
2023-02-25T17:44:11.627Z,2.00
2023-02-25T17:46:39.444Z,2.23
2023-02-25T17:49:17.658Z,2.33
2023-02-25T17:51:44.314Z,2.17
2023-02-25T17:54:15.373Z,9.57
2023-02-25T17:56:41.723Z,3.90
2023-02-25T17:59:28.019Z,4.00
2023-02-25T18:01:55.950Z,2.60
2023-02-25T18:04:22.322Z,2.60
2023-02-25T18:06:48.865Z,2.13
2023-02-25T18:09:36.443Z,2.67
2023-02-25T18:12:03.584Z,2.20
2023-02-25T18:14:33.170Z,2.27
2023-02-25T18:16:59.687Z,2.27
2023-02-25T18:19:27.772Z,2.00
2023-02-25T18:21:54.381Z,2.10
2023-02-25T18:24:25.451Z,2.97
2023-02-25T18:27:05.715Z,2.50
2023-02-25T18:29:32.885Z,3.17
2023-02-25T18:31:59.370Z,1.90
2023-02-25T18:34:25.726Z,1.90
2023-02-25T18:36:52.021Z,2.10
2023-02-25T18:39:18.760Z,2.07
2023-02-25T18:41:45.076Z,2.20
2023-02-25T18:44:14.435Z,2.10
2023-02-25T18:46:40.796Z,2.40
2023-02-25T18:49:07.169Z,2.13
2023-02-25T18:51:33.525Z,2.07
2023-02-25T18:53:59.852Z,1.80
2023-02-25T18:56:26.355Z,2.10
2023-02-25T18:58:57.352Z,2.57
2023-02-25T19:01:25.749Z,2.80
2023-02-25T19:03:53.770Z,2.73
2023-02-25T19:06:20.104Z,3.40
2023-02-25T19:08:46.489Z,3.43
2023-02-25T19:11:20.613Z,2.93
2023-02-25T19:13:47.053Z,2.60
2023-02-25T19:16:13.456Z,2.33
2023-02-25T19:18:41.463Z,2.40
2023-02-25T19:21:13.228Z,2.63
2023-02-25T19:23:39.613Z,2.30
2023-02-25T19:26:06.030Z,2.03
2023-02-25T19:28:32.337Z,2.60
2023-02-25T19:30:58.791Z,2.30
2023-02-25T19:33:25.125Z,2.83
2023-02-25T19:35:51.435Z,2.70
2023-02-25T19:38:18.678Z,2.90
2023-02-25T19:40:45.694Z,2.80
2023-02-25T19:43:12.134Z,2.50
2023-02-25T19:45:39.539Z,2.40
2023-02-25T19:48:06.429Z,2.53
2023-02-25T19:50:34.753Z,2.53
2023-02-25T19:53:01.851Z,2.57
2023-02-25T19:55:28.441Z,2.97
2023-02-25T19:57:55.112Z,2.80
2023-02-25T20:00:22.702Z,3.27
2023-02-25T20:02:49.561Z,3.70
2023-02-25T20:05:15.996Z,4.17
2023-02-25T20:07:42.486Z,5.27
2023-02-25T20:10:10.950Z,6.57
2023-02-25T20:12:38.066Z,6.17
2023-02-25T20:15:05.168Z,6.67
2023-02-25T20:17:31.522Z,6.70
2023-02-25T20:19:58.136Z,7.53
2023-02-25T20:22:24.495Z,8.87
2023-02-25T20:24:50.910Z,10.00
2023-02-25T20:27:17.524Z,10.87
2023-02-25T20:29:43.916Z,11.97
2023-02-25T20:32:10.551Z,11.03
2023-02-25T20:34:37.744Z,12.53
2023-02-25T20:37:11.873Z,12.53
2023-02-25T20:39:38.135Z,11.87
2023-02-25T20:42:15.352Z,12.33
2023-02-25T20:44:41.822Z,11.60
2023-02-25T20:47:12.986Z,11.90
2023-02-25T20:49:40.444Z,11.37
2023-02-25T20:52:06.819Z,11.40
2023-02-25T20:54:33.096Z,11.70
2023-02-25T20:57:00.358Z,11.90
2023-02-25T20:59:26.659Z,11.43
2023-02-25T21:01:53.267Z,11.17
2023-02-25T21:04:19.605Z,10.80
2023-02-25T21:06:45.928Z,9.87
2023-02-25T21:09:12.238Z,9.60
2023-02-25T21:11:38.659Z,9.13
2023-02-25T21:14:10.099Z,8.23
2023-02-25T21:16:37.240Z,8.13
2023-02-25T21:19:04.602Z,7.13
2023-02-25T21:21:36.727Z,7.33
2023-02-25T21:24:04.322Z,7.23
2023-02-25T21:26:30.754Z,7.30
2023-02-25T21:28:57.107Z,7.03
2023-02-25T21:31:23.612Z,7.00
2023-02-25T21:33:49.976Z,6.60
2023-02-25T21:36:16.699Z,6.60
2023-02-25T21:38:43.387Z,6.53
2023-02-25T21:41:12.068Z,6.00
2023-02-25T21:43:38.728Z,6.20
2023-02-25T21:46:05.840Z,6.20
2023-02-25T21:48:32.666Z,6.43
2023-02-25T21:50:59.155Z,5.87
2023-02-25T21:53:27.513Z,5.60
2023-02-25T21:55:54.452Z,5.80
2023-02-25T21:58:21.122Z,6.30
2023-02-25T22:00:47.476Z,5.80
2023-02-25T22:03:13.779Z,5.47
2023-02-25T22:05:43.978Z,5.93
2023-02-25T22:08:10.321Z,6.27
2023-02-25T22:10:36.651Z,5.37
2023-02-25T22:13:02.937Z,6.30
2023-02-25T22:15:29.547Z,6.93
2023-02-25T22:17:55.877Z,6.90
2023-02-25T22:20:22.167Z,6.53
2023-02-25T22:22:48.534Z,7.00
2023-02-25T22:25:14.906Z,6.87
2023-02-25T22:27:41.274Z,7.00
2023-02-25T22:30:08.841Z,8.00
2023-02-25T22:32:36.146Z,7.73
2023-02-25T22:35:02.643Z,7.07
2023-02-25T22:37:29.100Z,6.73
2023-02-25T22:39:55.456Z,7.50
2023-02-25T22:42:21.770Z,6.70
2023-02-25T22:44:48.058Z,7.10
2023-02-25T22:47:14.374Z,6.97
2023-02-25T22:49:40.659Z,6.30
2023-02-25T22:52:07.056Z,6.87
2023-02-25T22:54:33.472Z,6.57
2023-02-25T22:56:59.776Z,7.80
2023-02-25T22:59:26.070Z,6.97
2023-02-25T23:01:52.537Z,6.03
2023-02-25T23:04:18.813Z,6.80
2023-02-25T23:06:46.004Z,6.73
2023-02-25T23:09:14.217Z,6.50
2023-02-25T23:11:41.989Z,6.43
2023-02-25T23:14:08.323Z,6.90
2023-02-25T23:16:36.380Z,6.40
2023-02-25T23:19:04.141Z,7.30
2023-02-25T23:21:30.934Z,6.80
2023-02-25T23:23:57.941Z,6.67
2023-02-25T23:26:42.714Z,6.87
2023-02-25T23:29:10.605Z,6.83
2023-02-25T23:31:38.383Z,7.20
2023-02-25T23:34:08.822Z,7.00
2023-02-25T23:36:35.909Z,7.10
2023-02-25T23:39:02.993Z,6.67
2023-02-25T23:41:29.970Z,7.00
2023-02-25T23:43:57.577Z,7.07
2023-02-25T23:46:25.393Z,6.27
2023-02-25T23:48:55.773Z,6.80
2023-02-25T23:51:22.140Z,6.33
2023-02-25T23:53:51.761Z,6.60
2023-02-25T23:56:18.084Z,6.60
2023-02-25T23:58:47.954Z,5.43
